Tamanrasset, Algeria
Current Conditions -  °F | °C
As of 3:30 PM on Friday 24 Oct 2014 (Local Time) from DAAT Reporting Station
Clear Clear  
Wind Chill: 28°   Ceiling: Unl
Heat Index: 28°   Visibility: 6mi
Dew Point:   Wind: 14mph
Humidity: 16%   Direction: 270°W
Pressure: 30.09"   Gusts: NA
Location:  22.78°N, 5.52°E
Report Text: DAAT 241430Z 27012KT 240V300 CAVOK 28/00 Q1019
Loading
Personal Weather Stations






























Interactive Weather Map
Tropical Storm Tracking
New forecast layout! Learn more

10-Day Weather Forecast

Advertisements
Track Severe Weather on mobile